createdAt,value
2018-09-20T00:01:18.299Z,17.70
2018-09-20T00:03:48.030Z,17.60
2018-09-20T00:06:17.811Z,17.60
2018-09-20T00:08:48.437Z,17.50
2018-09-20T00:11:18.357Z,17.50
2018-09-20T00:13:48.081Z,17.40
2018-09-20T00:16:18.092Z,17.30
2018-09-20T00:18:47.769Z,17.30
2018-09-20T00:21:17.500Z,17.20
2018-09-20T00:23:47.384Z,17.20
2018-09-20T00:26:17.535Z,17.20
2018-09-20T00:28:47.262Z,17.20
2018-09-20T00:31:17.159Z,17.10
2018-09-20T00:33:47.027Z,17.10
2018-09-20T00:36:16.667Z,17.10
2018-09-20T00:38:46.639Z,17.00
2018-09-20T00:41:16.780Z,17.00
2018-09-20T00:43:46.797Z,17.00
2018-09-20T00:46:16.615Z,17.00
2018-09-20T00:48:46.280Z,17.00
2018-09-20T00:51:16.027Z,17.00
2018-09-20T00:53:45.827Z,17.10
2018-09-20T00:56:15.554Z,17.10
2018-09-20T00:58:45.370Z,17.10
2018-09-20T01:01:15.074Z,17.00
2018-09-20T01:03:44.783Z,16.90
2018-09-20T01:06:14.769Z,16.90
2018-09-20T01:08:45.013Z,16.90
2018-09-20T01:11:20.968Z,16.80
2018-09-20T01:13:51.041Z,16.80
2018-09-20T01:16:20.703Z,16.80
2018-09-20T01:18:50.471Z,16.70
2018-09-20T01:21:20.323Z,16.70
2018-09-20T01:23:50.082Z,16.70
2018-09-20T01:26:19.861Z,16.70
2018-09-20T01:28:49.916Z,16.70
2018-09-20T01:31:19.596Z,16.60
2018-09-20T01:33:49.691Z,16.60
2018-09-20T01:36:19.408Z,16.60
2018-09-20T01:38:49.438Z,16.60
2018-09-20T01:41:19.344Z,16.50
2018-09-20T01:43:49.449Z,16.60
2018-09-20T01:46:19.216Z,16.60
2018-09-20T01:48:48.958Z,16.60
2018-09-20T01:51:18.632Z,16.60
2018-09-20T01:53:48.572Z,16.50
2018-09-20T01:56:18.448Z,16.50
2018-09-20T01:58:48.132Z,16.50
2018-09-20T02:01:17.930Z,16.60
2018-09-20T02:03:47.876Z,16.50
2018-09-20T02:06:17.465Z,16.50
2018-09-20T02:08:47.348Z,16.50
2018-09-20T02:11:17.160Z,16.50
2018-09-20T02:13:47.334Z,16.40
2018-09-20T02:16:16.933Z,16.50
2018-09-20T02:18:46.710Z,16.40
2018-09-20T02:21:16.814Z,16.40
2018-09-20T02:23:46.465Z,16.40
2018-09-20T02:26:16.412Z,16.40
2018-09-20T02:28:46.278Z,16.40
2018-09-20T02:31:16.483Z,16.30
2018-09-20T02:33:46.155Z,16.40
2018-09-20T02:36:15.988Z,16.40
2018-09-20T02:38:45.826Z,16.30
2018-09-20T02:41:16.033Z,16.40
2018-09-20T02:43:45.669Z,16.30
2018-09-20T02:46:15.490Z,16.30
2018-09-20T02:48:45.319Z,16.30
2018-09-20T02:51:15.233Z,16.30
2018-09-20T02:53:44.904Z,16.30
2018-09-20T02:56:15.289Z,16.20
2018-09-20T02:58:45.050Z,16.30
2018-09-20T03:01:14.856Z,16.30
2018-09-20T03:03:44.718Z,16.20
2018-09-20T03:06:14.565Z,16.20
2018-09-20T03:08:44.477Z,16.20
2018-09-20T03:11:14.294Z,16.20
2018-09-20T03:13:44.207Z,16.10
2018-09-20T03:16:13.987Z,16.10
2018-09-20T03:18:43.981Z,16.10
2018-09-20T03:21:13.731Z,16.10
2018-09-20T03:23:44.171Z,16.10
2018-09-20T03:26:13.840Z,16.10
2018-09-20T03:28:43.746Z,16.10
2018-09-20T03:31:13.795Z,16.10
2018-09-20T03:33:43.726Z,16.10
2018-09-20T03:36:13.621Z,16.10
2018-09-20T03:38:43.551Z,16.10
2018-09-20T03:41:13.471Z,16.00
2018-09-20T03:43:43.715Z,16.00
2018-09-20T03:46:13.870Z,16.00
2018-09-20T03:48:43.716Z,15.90
2018-09-20T03:51:13.553Z,16.00
2018-09-20T03:53:43.240Z,16.00
2018-09-20T03:56:13.480Z,15.90
2018-09-20T03:58:43.265Z,16.00
2018-09-20T04:01:13.125Z,16.00
2018-09-20T04:03:43.121Z,16.00
2018-09-20T04:06:13.217Z,16.00
2018-09-20T04:08:42.975Z,15.90
2018-09-20T04:11:12.813Z,15.90
2018-09-20T04:13:42.725Z,15.90
2018-09-20T04:16:12.582Z,15.90
2018-09-20T04:18:42.674Z,15.90
2018-09-20T04:21:12.296Z,15.80
2018-09-20T04:23:42.131Z,15.80
2018-09-20T04:26:11.799Z,15.90
2018-09-20T04:28:41.897Z,16.00
2018-09-20T04:31:11.970Z,16.00
2018-09-20T04:33:41.989Z,16.00
2018-09-20T04:36:12.006Z,16.10
2018-09-20T04:38:41.920Z,16.10
2018-09-20T04:41:11.802Z,16.20
2018-09-20T04:43:41.435Z,16.20
2018-09-20T04:46:11.158Z,16.30
2018-09-20T04:48:41.206Z,16.40
2018-09-20T04:51:11.203Z,16.50
2018-09-20T04:53:41.000Z,16.50
2018-09-20T04:56:10.611Z,16.60
2018-09-20T04:58:40.353Z,16.70
2018-09-20T05:01:10.842Z,16.80
2018-09-20T05:03:40.947Z,16.80
2018-09-20T05:06:11.224Z,16.90
2018-09-20T05:08:41.047Z,17.00
2018-09-20T05:11:10.730Z,17.00
2018-09-20T05:13:40.628Z,17.10
2018-09-20T05:16:10.323Z,17.10
2018-09-20T05:18:40.126Z,17.30
2018-09-20T05:21:14.865Z,17.30
2018-09-20T05:23:44.877Z,17.40
2018-09-20T05:26:14.642Z,17.50
2018-09-20T05:28:44.767Z,17.60
2018-09-20T05:31:14.479Z,17.60
2018-09-20T05:33:44.531Z,17.70
2018-09-20T05:36:25.721Z,17.90
2018-09-20T05:38:55.338Z,18.00
2018-09-20T05:41:25.391Z,18.10
2018-09-20T05:43:55.204Z,18.20
2018-09-20T05:46:25.325Z,18.30
2018-09-20T05:48:55.326Z,18.40
2018-09-20T05:51:25.226Z,18.50
2018-09-20T05:53:55.228Z,18.50
2018-09-20T05:56:25.251Z,18.60
2018-09-20T05:58:55.373Z,18.70
2018-09-20T06:01:25.101Z,18.80
2018-09-20T06:03:54.932Z,18.90
2018-09-20T07:38:44.500Z,22.60
2018-09-20T07:41:14.618Z,23.20
2018-09-20T07:43:44.801Z,23.30
2018-09-20T07:46:14.609Z,23.60
2018-09-20T07:48:44.475Z,24.00
2018-09-20T07:51:14.151Z,24.60
2018-09-20T07:53:44.308Z,24.60
2018-09-20T07:56:14.032Z,24.60
2018-09-20T07:58:43.754Z,24.90
2018-09-20T08:01:13.682Z,25.50
2018-09-20T08:23:34.811Z,26.90
2018-09-20T08:26:04.603Z,28.30
2018-09-20T08:28:34.258Z,28.40
2018-09-20T08:31:03.943Z,28.30
2018-09-20T08:33:33.665Z,28.10
2018-09-20T08:36:03.308Z,27.90
2018-09-20T08:38:33.234Z,28.00
2018-09-20T08:41:02.970Z,28.00
2018-09-20T08:43:32.817Z,27.80
2018-09-20T08:46:02.614Z,27.60
2018-09-20T08:48:32.513Z,27.80
2018-09-20T08:51:02.259Z,27.80
2018-09-20T08:53:32.029Z,27.80
2018-09-20T08:56:01.708Z,28.00
2018-09-20T08:58:33.293Z,28.00
2018-09-20T09:01:04.659Z,27.90
2018-09-20T09:03:34.315Z,27.80
2018-09-20T09:06:04.033Z,27.70
2018-09-20T09:08:33.670Z,27.80
2018-09-20T09:11:03.369Z,27.70
2018-09-20T09:13:32.968Z,27.80
2018-09-20T09:16:03.314Z,27.70
2018-09-20T09:18:33.126Z,27.60
2018-09-20T09:21:02.991Z,27.60
2018-09-20T09:23:33.068Z,27.60
2018-09-20T09:26:03.044Z,27.60
2018-09-20T09:28:32.969Z,27.40
2018-09-20T09:31:02.900Z,27.50
2018-09-20T09:33:33.072Z,27.40
2018-09-20T09:36:02.827Z,27.60
2018-09-20T09:38:32.903Z,27.70
2018-09-20T09:41:02.648Z,27.80
2018-09-20T09:43:32.330Z,27.90
2018-09-20T09:46:02.312Z,27.70
2018-09-20T09:48:32.064Z,27.70
2018-09-20T09:51:01.762Z,27.70
2018-09-20T09:53:31.613Z,27.80
2018-09-20T09:56:01.313Z,27.90
2018-09-20T09:58:31.038Z,28.20
2018-09-20T10:01:00.851Z,28.30
2018-09-20T10:03:30.585Z,28.20
2018-09-20T10:06:00.336Z,28.20
2018-09-20T10:08:29.955Z,28.30
2018-09-20T10:10:59.835Z,28.40
2018-09-20T10:13:29.688Z,28.40
2018-09-20T10:15:59.528Z,28.50
2018-09-20T10:18:29.595Z,28.70
2018-09-20T10:20:59.441Z,28.90
2018-09-20T10:23:29.464Z,28.90
2018-09-20T10:25:59.308Z,29.00
2018-09-20T10:28:29.105Z,29.20
2018-09-20T10:30:59.069Z,29.40
2018-09-20T10:33:29.117Z,29.50
2018-09-20T10:35:59.066Z,29.50
2018-09-20T10:38:28.949Z,29.60
2018-09-20T10:40:58.757Z,29.80
2018-09-20T10:43:28.569Z,30.10
2018-09-20T10:45:58.380Z,30.10
2018-09-20T10:48:28.424Z,29.90
2018-09-20T10:50:58.395Z,30.50
2018-09-20T10:53:28.538Z,30.90
2018-09-20T10:55:58.388Z,31.20
2018-09-20T10:58:28.304Z,31.50
2018-09-20T11:00:58.181Z,31.80
2018-09-20T11:03:28.364Z,32.20
2018-09-20T11:05:58.247Z,32.20
2018-09-20T11:08:28.165Z,32.00
2018-09-20T11:10:58.083Z,31.60
2018-09-20T11:13:27.901Z,31.80
2018-09-20T11:15:58.251Z,32.20
2018-09-20T11:18:28.166Z,32.40
2018-09-20T11:20:58.009Z,32.00
2018-09-20T11:23:27.765Z,31.70
2018-09-20T11:25:57.706Z,31.90
2018-09-20T11:28:27.592Z,31.90
2018-09-20T11:30:58.768Z,31.70
2018-09-20T11:33:28.742Z,31.70
2018-09-20T11:35:58.724Z,31.60
2018-09-20T11:38:28.760Z,31.40
2018-09-20T11:40:58.536Z,31.40
2018-09-20T11:43:28.458Z,31.30
2018-09-20T11:45:59.122Z,31.20
2018-09-20T11:48:28.942Z,31.00
2018-09-20T11:50:58.707Z,30.70
2018-09-20T11:53:28.833Z,30.80
2018-09-20T11:55:58.950Z,31.00
2018-09-20T11:58:30.651Z,31.30
2018-09-20T12:01:00.776Z,31.10
2018-09-20T12:03:30.678Z,31.40
2018-09-20T12:06:00.686Z,31.30
2018-09-20T12:08:30.703Z,31.10
2018-09-20T12:11:00.508Z,31.30
2018-09-20T12:13:30.354Z,31.10
2018-09-20T12:16:00.410Z,31.00
2018-09-20T12:18:30.385Z,31.10
2018-09-20T12:21:01.244Z,31.00
2018-09-20T12:23:31.183Z,30.80
2018-09-20T12:26:01.321Z,30.70
2018-09-20T12:28:31.314Z,30.40
2018-09-20T12:31:01.338Z,30.30
2018-09-20T12:33:31.430Z,30.40
2018-09-20T12:36:01.296Z,30.70
2018-09-20T12:38:31.458Z,30.60
2018-09-20T12:41:01.442Z,30.40
2018-09-20T12:43:31.423Z,30.40
2018-09-20T12:46:01.343Z,30.50
2018-09-20T12:48:31.267Z,30.50
2018-09-20T12:51:01.196Z,30.30
2018-09-20T12:53:32.070Z,30.10
2018-09-20T12:56:01.998Z,30.00
2018-09-20T12:58:38.704Z,29.70
2018-09-20T13:01:08.775Z,29.60
2018-09-20T13:03:38.923Z,29.40
2018-09-20T13:06:08.960Z,29.10
2018-09-20T13:08:38.734Z,29.10
2018-09-20T13:11:08.753Z,28.90
2018-09-20T13:13:38.762Z,28.80
2018-09-20T13:16:08.727Z,28.90
2018-09-20T13:18:41.556Z,29.10
2018-09-20T13:21:11.708Z,28.80
2018-09-20T13:23:41.448Z,29.00
2018-09-20T13:26:11.464Z,29.00
2018-09-20T13:28:41.556Z,29.00
2018-09-20T13:31:11.283Z,28.80
2018-09-20T13:33:41.074Z,28.80
2018-09-20T13:36:11.167Z,28.90
2018-09-20T13:38:40.923Z,28.90
2018-09-20T13:41:10.706Z,28.90
2018-09-20T13:43:40.641Z,28.90
2018-09-20T13:46:10.443Z,28.90
2018-09-20T13:48:40.694Z,28.80
2018-09-20T13:51:10.440Z,28.70
2018-09-20T13:53:40.297Z,28.80
2018-09-20T13:56:10.083Z,28.90
2018-09-20T13:58:40.549Z,29.00
2018-09-20T14:01:11.940Z,28.90
2018-09-20T14:03:41.730Z,28.80
2018-09-20T14:06:11.999Z,28.70
2018-09-20T14:08:41.983Z,28.70
2018-09-20T14:11:11.749Z,28.60
2018-09-20T14:13:41.579Z,28.60
2018-09-20T14:16:11.311Z,28.60
2018-09-20T14:18:41.036Z,28.50
2018-09-20T14:21:11.064Z,28.40
2018-09-20T14:23:41.928Z,28.40
2018-09-20T14:26:11.686Z,28.10
2018-09-20T14:28:41.865Z,28.20
2018-09-20T14:31:11.576Z,28.10
2018-09-20T14:36:11.639Z,28.10
2018-09-20T14:38:41.328Z,28.00
2018-09-20T14:41:11.005Z,28.00
2018-09-20T14:43:40.715Z,27.90
2018-09-20T14:46:10.433Z,27.70
2018-09-20T14:48:40.824Z,27.60
2018-09-20T14:51:10.764Z,27.60
2018-09-20T14:53:40.468Z,27.50
2018-09-20T14:56:10.322Z,27.40
2018-09-20T14:58:39.938Z,27.30
2018-09-20T15:01:09.757Z,27.20
2018-09-20T15:03:39.470Z,27.30
2018-09-20T15:06:09.265Z,27.20
2018-09-20T15:08:38.864Z,27.20
2018-09-20T15:11:08.780Z,27.10
2018-09-20T15:13:38.450Z,27.00
2018-09-20T15:16:08.565Z,26.90
2018-09-20T15:18:38.260Z,26.90
2018-09-20T15:21:08.198Z,26.70
2018-09-20T15:23:38.205Z,26.60
2018-09-20T15:26:08.015Z,26.30
2018-09-20T15:28:37.632Z,26.20
2018-09-20T15:31:17.751Z,26.10
2018-09-20T15:33:47.568Z,25.90
2018-09-20T15:36:17.332Z,25.80
2018-09-20T15:38:47.268Z,25.70
2018-09-20T15:41:17.937Z,25.60
2018-09-20T15:43:47.625Z,25.40
2018-09-20T15:46:17.864Z,25.20
2018-09-20T15:48:47.911Z,25.10
2018-09-20T15:51:17.875Z,25.00
2018-09-20T15:53:47.633Z,24.90
2018-09-20T15:56:17.291Z,24.80
2018-09-20T15:58:47.130Z,24.60
2018-09-20T16:01:16.720Z,24.60
2018-09-20T16:03:46.354Z,24.50
2018-09-20T16:06:16.030Z,24.40
2018-09-20T16:08:45.628Z,24.40
2018-09-20T16:11:16.303Z,24.40
2018-09-20T16:13:47.152Z,24.40
2018-09-20T16:16:17.519Z,24.40
2018-09-20T16:18:49.645Z,24.30
2018-09-20T16:21:20.397Z,24.10
2018-09-20T16:23:51.122Z,24.00
2018-09-20T16:26:20.995Z,23.90
2018-09-20T16:29:03.182Z,23.80
2018-09-20T16:31:59.300Z,23.70
2018-09-20T16:34:53.877Z,23.50
2018-09-20T16:38:39.130Z,23.40
2018-09-20T16:41:14.625Z,23.30
2018-09-20T16:43:45.499Z,23.10
2018-09-20T16:46:16.470Z,23.00
2018-09-20T16:48:47.855Z,23.00
2018-09-20T16:51:18.034Z,22.90
2018-09-20T16:53:48.775Z,22.80
2018-09-20T16:56:18.839Z,22.80
2018-09-20T16:58:50.455Z,22.70
2018-09-20T17:01:21.311Z,22.50
2018-09-20T17:03:52.152Z,22.50
2018-09-20T17:06:22.098Z,22.50
2018-09-20T17:08:52.155Z,22.50
2018-09-20T17:11:28.189Z,22.40
2018-09-20T17:13:57.859Z,22.30
2018-09-20T17:16:27.513Z,22.20
2018-09-20T17:18:57.180Z,22.20
2018-09-20T17:21:26.902Z,22.10
2018-09-20T17:23:56.568Z,22.10
2018-09-20T17:26:26.313Z,22.10
2018-09-20T17:28:56.711Z,22.10
2018-09-20T17:31:26.449Z,22.00
2018-09-20T17:33:56.780Z,22.00
2018-09-20T17:36:26.922Z,22.00
2018-09-20T17:38:57.305Z,21.90
2018-09-20T17:41:31.017Z,21.70
2018-09-20T17:44:02.884Z,21.70
2018-09-20T17:46:43.029Z,21.60
2018-09-20T17:49:14.671Z,21.60
2018-09-20T17:51:46.134Z,21.50
2018-09-20T17:54:17.260Z,21.50
2018-09-20T17:56:48.327Z,21.50
2018-09-20T17:59:20.762Z,21.60
2018-09-20T18:01:51.530Z,21.60
2018-09-20T18:04:21.572Z,21.60
2018-09-20T18:06:51.379Z,21.70
2018-09-20T18:09:21.158Z,21.60
2018-09-20T18:11:51.259Z,21.60
2018-09-20T18:14:20.967Z,21.70
2018-09-20T18:16:50.659Z,21.70
2018-09-20T18:19:20.464Z,21.60
2018-09-20T18:21:50.374Z,21.40
2018-09-20T18:24:20.414Z,21.30
2018-09-20T18:26:52.457Z,21.30
2018-09-20T18:29:26.492Z,21.20
2018-09-20T18:31:57.797Z,21.10
2018-09-20T18:34:28.075Z,21.00
2018-09-20T18:37:00.598Z,21.00
2018-09-20T18:39:31.968Z,20.90
2018-09-20T18:42:04.301Z,20.90
2018-09-20T18:44:34.703Z,20.80
2018-09-20T18:47:09.025Z,20.80
2018-09-20T18:49:42.881Z,20.80
2018-09-20T18:52:14.196Z,20.80
2018-09-20T18:54:45.174Z,20.80
2018-09-20T18:57:18.090Z,20.70
2018-09-20T18:59:49.827Z,20.60
2018-09-20T19:02:23.586Z,20.50
2018-09-20T19:04:54.840Z,20.50
2018-09-20T19:07:26.592Z,20.40
2018-09-20T19:09:58.192Z,20.30
2018-09-20T19:12:32.178Z,20.30
2018-09-20T19:15:02.747Z,20.20
2018-09-20T19:17:33.788Z,20.10
2018-09-20T19:20:03.485Z,20.10
2018-09-20T19:22:33.427Z,20.00
2018-09-20T19:25:03.454Z,19.90
2018-09-20T19:27:33.324Z,20.00
2018-09-20T19:30:03.144Z,19.90
2018-09-20T19:32:32.848Z,19.90
2018-09-20T19:35:02.577Z,19.90
2018-09-20T19:37:32.353Z,19.70
2018-09-20T19:40:02.299Z,19.70
2018-09-20T19:42:34.048Z,19.60
2018-09-20T19:45:04.677Z,19.60
2018-09-20T19:47:35.241Z,19.60
2018-09-20T19:50:05.541Z,19.60
2018-09-20T19:52:35.447Z,19.60
2018-09-20T19:55:05.194Z,19.50
2018-09-20T19:57:34.899Z,19.40
2018-09-20T20:00:05.016Z,19.40
2018-09-20T20:02:34.799Z,19.30
2018-09-20T20:05:04.613Z,19.30
2018-09-20T20:07:34.367Z,19.20
2018-09-20T20:10:04.202Z,19.20
2018-09-20T20:12:33.937Z,19.20
2018-09-20T20:15:03.668Z,19.20
2018-09-20T20:17:33.496Z,19.20
2018-09-20T20:20:03.765Z,19.10
2018-09-20T20:22:33.660Z,19.00
2018-09-20T20:25:03.574Z,19.00
2018-09-20T20:27:33.348Z,19.00
2018-09-20T20:30:03.146Z,19.00
2018-09-20T20:32:32.906Z,18.90
2018-09-20T20:35:02.619Z,18.90
2018-09-20T20:37:32.247Z,18.80
2018-09-20T20:40:02.635Z,18.80
2018-09-20T20:42:32.881Z,18.80
2018-09-20T20:45:03.069Z,18.80
2018-09-20T20:47:32.974Z,18.80
2018-09-20T20:50:02.680Z,18.70
2018-09-20T20:52:32.419Z,18.70
2018-09-20T20:55:02.314Z,18.70
2018-09-20T20:57:32.676Z,18.70
2018-09-20T21:02:38.286Z,18.70
2018-09-20T21:05:07.927Z,18.70
2018-09-20T21:07:37.780Z,18.60
2018-09-20T21:10:07.581Z,18.60
2018-09-20T21:12:37.350Z,18.50
2018-09-20T21:15:07.853Z,18.50
2018-09-20T21:17:37.672Z,18.50
2018-09-20T21:20:07.412Z,18.40
2018-09-20T21:22:37.282Z,18.50
2018-09-20T21:25:07.418Z,18.40
2018-09-20T21:27:37.115Z,18.60
2018-09-20T21:30:06.865Z,18.60
2018-09-20T21:32:36.647Z,18.50
2018-09-20T21:35:06.669Z,18.50
2018-09-20T21:37:36.593Z,18.40
2018-09-20T21:40:06.309Z,18.30
2018-09-20T21:42:36.239Z,18.30
2018-09-20T21:45:06.276Z,18.20
2018-09-20T21:47:36.039Z,18.20
2018-09-20T21:50:06.055Z,18.00
2018-09-20T21:52:35.833Z,18.00
2018-09-20T21:55:05.767Z,17.90
2018-09-20T21:57:35.582Z,17.80
2018-09-20T22:00:06.145Z,17.70
2018-09-20T22:02:41.260Z,17.80
2018-09-20T22:05:10.985Z,17.70
2018-09-20T22:07:58.987Z,17.60
2018-09-20T22:10:33.202Z,17.60
2018-09-20T22:13:05.019Z,17.60
2018-09-20T22:15:34.794Z,17.50
2018-09-20T22:18:04.839Z,17.60
2018-09-20T22:20:34.662Z,17.50
2018-09-20T22:23:04.263Z,17.50
2018-09-20T22:25:34.179Z,17.60
2018-09-20T22:28:03.795Z,17.60
2018-09-20T22:30:33.771Z,17.50
2018-09-20T22:33:03.770Z,17.50
2018-09-20T22:35:33.634Z,17.60
2018-09-20T22:38:03.579Z,17.50
2018-09-20T22:40:34.153Z,17.50
2018-09-20T22:43:03.857Z,17.40
2018-09-20T22:45:33.573Z,17.40
2018-09-20T22:48:03.738Z,17.40
2018-09-20T22:50:33.504Z,17.30
2018-09-20T22:53:03.232Z,17.30
2018-09-20T22:55:33.023Z,17.40
2018-09-20T22:58:02.853Z,17.40
2018-09-20T23:00:32.696Z,17.50
2018-09-20T23:05:37.304Z,17.40
2018-09-20T23:08:07.268Z,17.30
2018-09-20T23:10:36.941Z,17.30
2018-09-20T23:13:07.000Z,17.20
2018-09-20T23:15:36.726Z,17.30
2018-09-20T23:18:06.444Z,17.20
2018-09-20T23:20:36.069Z,17.10
2018-09-20T23:23:05.786Z,17.10
2018-09-20T23:25:35.525Z,17.00
2018-09-20T23:28:05.194Z,16.90
2018-09-20T23:30:35.161Z,16.90
2018-09-20T23:33:04.885Z,16.80
2018-09-20T23:35:34.876Z,16.80
2018-09-20T23:38:04.851Z,16.80
2018-09-20T23:40:34.534Z,16.70
2018-09-20T23:43:04.409Z,16.70
2018-09-20T23:45:34.203Z,16.70
2018-09-20T23:48:03.946Z,16.70
2018-09-20T23:50:33.584Z,16.70
2018-09-20T23:53:03.293Z,16.80
2018-09-20T23:55:33.127Z,16.70
2018-09-20T23:58:02.895Z,16.70
